createdAt,value
2023-01-08T00:02:06.149Z,23.30
2023-01-08T00:07:08.606Z,24.07
2023-01-08T00:12:11.039Z,26.00
2023-01-08T00:17:13.561Z,26.17
2023-01-08T00:22:16.194Z,25.87
2023-01-08T00:27:18.623Z,15.07
2023-01-08T00:32:21.257Z,23.77
2023-01-08T00:37:23.780Z,20.40
2023-01-08T00:42:26.269Z,17.23
2023-01-08T00:47:28.637Z,21.03
2023-01-08T00:52:31.154Z,25.80
2023-01-08T00:57:38.651Z,18.43
2023-01-08T01:02:41.745Z,23.67
2023-01-08T01:07:44.623Z,24.47
2023-01-08T01:12:47.123Z,24.63
2023-01-08T01:17:49.682Z,26.10
2023-01-08T01:22:52.219Z,25.97
2023-01-08T01:27:54.711Z,24.90
2023-01-08T01:32:57.121Z,19.00
2023-01-08T01:37:59.618Z,25.83
2023-01-08T01:43:02.184Z,26.33
2023-01-08T01:48:10.355Z,25.10
2023-01-08T01:53:25.003Z,23.07
2023-01-08T01:58:30.204Z,18.70
2023-01-08T02:03:39.110Z,26.20
2023-01-08T02:08:50.516Z,26.77
2023-01-08T02:14:02.136Z,18.83
2023-01-08T02:19:22.777Z,26.87
2023-01-08T02:24:51.008Z,19.67
2023-01-08T02:29:54.753Z,24.97
2023-01-08T02:34:57.246Z,23.43
2023-01-08T02:39:59.698Z,25.23
2023-01-08T02:45:04.946Z,22.60
2023-01-08T02:50:31.894Z,21.33
2023-01-08T02:55:37.523Z,24.83
2023-01-08T03:00:42.555Z,24.00
2023-01-08T03:05:49.676Z,23.77
2023-01-08T03:11:05.657Z,27.33
2023-01-08T03:16:16.113Z,26.30
2023-01-08T03:21:22.207Z,26.37
2023-01-08T03:26:27.079Z,25.47
2023-01-08T03:31:31.036Z,22.97
2023-01-08T03:36:35.167Z,16.73
2023-01-08T03:41:37.707Z,23.80
2023-01-08T03:46:45.414Z,17.60
2023-01-08T03:51:48.191Z,16.90
2023-01-08T03:56:50.786Z,17.33
2023-01-08T04:01:53.519Z,19.03
2023-01-08T04:06:56.046Z,20.90
2023-01-08T04:11:58.638Z,23.40
2023-01-08T04:17:01.357Z,18.60
2023-01-08T04:22:03.867Z,18.73
2023-01-08T04:27:06.650Z,21.33
2023-01-08T04:32:09.162Z,20.27
2023-01-08T04:37:11.670Z,19.07
2023-01-08T04:42:14.178Z,20.67
2023-01-08T04:47:16.885Z,18.97
2023-01-08T04:52:19.442Z,21.53
2023-01-08T04:57:21.999Z,25.33
2023-01-08T05:02:24.650Z,23.83
2023-01-08T05:07:27.276Z,15.00
2023-01-08T05:12:29.723Z,14.90
2023-01-08T05:17:32.268Z,25.27
2023-01-08T05:22:35.516Z,22.63
2023-01-08T05:27:38.024Z,23.13
2023-01-08T05:32:40.500Z,25.13
2023-01-08T05:37:43.006Z,23.20
2023-01-08T05:42:45.412Z,24.63
2023-01-08T05:47:47.888Z,24.10
2023-01-08T05:52:50.643Z,24.03
2023-01-08T05:57:53.159Z,23.03
2023-01-08T06:02:55.623Z,21.43
2023-01-08T06:08:01.736Z,15.27
2023-01-08T06:13:07.528Z,16.90
2023-01-08T06:18:09.826Z,19.57
2023-01-08T06:23:12.677Z,17.67
2023-01-08T06:28:15.160Z,17.13
2023-01-08T06:33:20.178Z,15.70
2023-01-08T06:38:23.650Z,26.07
2023-01-08T06:43:26.152Z,16.10
2023-01-08T06:48:29.043Z,19.27
2023-01-08T06:53:31.452Z,18.93
2023-01-08T06:58:33.976Z,18.20
2023-01-08T07:03:36.488Z,17.83
2023-01-08T07:08:38.931Z,16.57
2023-01-08T07:13:41.486Z,16.23
2023-01-08T07:18:44.908Z,14.60
2023-01-08T07:23:49.255Z,14.37
2023-01-08T07:28:51.716Z,26.77
2023-01-08T07:33:54.392Z,21.17
2023-01-08T07:38:56.814Z,11.07
2023-01-08T07:43:59.287Z,20.10
2023-01-08T07:49:01.847Z,20.70
2023-01-08T07:54:04.498Z,14.07
2023-01-08T07:59:06.915Z,15.23
2023-01-08T08:04:09.365Z,17.93
2023-01-08T08:09:13.047Z,15.90
2023-01-08T08:14:15.546Z,13.30
2023-01-08T08:19:18.575Z,22.17
2023-01-08T08:24:21.028Z,21.37
2023-01-08T08:29:23.472Z,23.20
2023-01-08T08:34:26.093Z,20.80
2023-01-08T08:39:28.626Z,21.43
2023-01-08T08:44:31.335Z,22.73
2023-01-08T08:49:33.768Z,18.00
2023-01-08T08:54:38.676Z,18.47
2023-01-08T08:59:41.289Z,24.10
2023-01-08T09:04:43.759Z,12.33
2023-01-08T09:09:46.162Z,18.07
2023-01-08T09:14:51.926Z,17.37
2023-01-08T09:19:54.369Z,20.20
2023-01-08T09:24:56.909Z,16.40
2023-01-08T09:29:59.391Z,19.67
2023-01-08T09:35:01.857Z,20.47
2023-01-08T09:40:04.821Z,17.47
2023-01-08T09:45:22.961Z,21.33
2023-01-08T09:50:28.318Z,21.67
2023-01-08T09:55:34.430Z,21.10
2023-01-08T10:00:36.961Z,14.77
2023-01-08T10:05:41.812Z,18.57
2023-01-08T10:10:44.576Z,13.40
2023-01-08T10:15:47.740Z,19.07
2023-01-08T10:20:50.207Z,26.93
2023-01-08T10:26:01.055Z,29.73
2023-01-08T10:31:15.889Z,24.20
2023-01-08T10:36:24.058Z,21.70
2023-01-08T10:41:27.391Z,20.93
2023-01-08T10:46:48.298Z,20.57
2023-01-08T10:51:52.656Z,19.80
2023-01-08T10:56:55.345Z,21.90
2023-01-08T11:01:58.607Z,21.47
2023-01-08T11:07:04.523Z,21.23
2023-01-08T11:12:22.130Z,19.27
2023-01-08T11:17:28.391Z,18.40
2023-01-08T11:22:31.875Z,21.10
2023-01-08T11:27:41.297Z,19.93
2023-01-08T11:32:53.456Z,20.67
2023-01-08T11:38:01.837Z,20.90
2023-01-08T11:43:26.491Z,17.40
2023-01-08T11:48:53.873Z,20.00
2023-01-08T11:54:23.873Z,16.87
2023-01-08T11:59:29.207Z,18.57
2023-01-08T12:04:40.565Z,20.83
2023-01-08T12:10:06.698Z,15.13
2023-01-08T12:15:12.358Z,18.70
2023-01-08T12:20:47.416Z,16.07
2023-01-08T12:25:49.915Z,17.87
2023-01-08T12:30:52.401Z,19.93
2023-01-08T12:35:58.071Z,20.53
2023-01-08T12:41:19.230Z,19.33
2023-01-08T12:46:22.979Z,18.50
2023-01-08T12:51:37.887Z,19.53
2023-01-08T12:57:10.602Z,20.30
2023-01-08T13:02:19.066Z,20.87
2023-01-08T13:07:35.990Z,17.97
2023-01-08T13:12:41.112Z,18.97
2023-01-08T13:17:49.498Z,17.67
2023-01-08T13:23:01.051Z,19.00
2023-01-08T13:28:29.423Z,16.17
2023-01-08T13:33:34.801Z,15.63
2023-01-08T13:38:37.332Z,17.17
2023-01-08T13:43:41.955Z,15.33
2023-01-08T13:49:07.146Z,16.73
2023-01-08T13:54:12.412Z,17.60
2023-01-08T13:59:48.020Z,16.73
2023-01-08T14:04:51.807Z,16.73
2023-01-08T14:10:05.811Z,12.87
2023-01-08T14:15:13.852Z,19.23
2023-01-08T14:20:29.320Z,15.83
2023-01-08T14:25:31.964Z,17.97
2023-01-08T14:30:35.764Z,19.80
2023-01-08T14:35:38.491Z,17.93
2023-01-08T14:40:47.717Z,18.37
2023-01-08T14:45:53.029Z,15.87
2023-01-08T14:51:24.713Z,19.10
2023-01-08T14:56:36.204Z,19.27
2023-01-08T15:07:07.094Z,21.47
2023-01-08T15:12:33.390Z,21.53
2023-01-08T15:17:36.972Z,22.50
2023-01-08T15:22:44.332Z,19.90
2023-01-08T15:28:01.240Z,30.50
2023-01-08T15:33:09.743Z,35.87
2023-01-08T15:38:13.244Z,38.57
2023-01-08T15:43:18.366Z,38.67
2023-01-08T15:48:20.947Z,40.50
2023-01-08T15:53:25.595Z,38.80
2023-01-08T15:58:28.196Z,40.23
2023-01-08T16:03:31.616Z,47.13
2023-01-08T16:08:34.270Z,45.20
2023-01-08T16:13:37.435Z,50.67
2023-01-08T16:18:39.971Z,55.93
2023-01-08T16:23:42.867Z,57.60
2023-01-08T16:28:48.520Z,55.20
2023-01-08T16:33:51.118Z,71.20
2023-01-08T16:44:30.046Z,64.90
2023-01-08T16:49:35.085Z,51.60
2023-01-08T16:54:39.643Z,55.93
2023-01-08T16:59:42.117Z,54.93
2023-01-08T17:04:44.685Z,56.73
2023-01-08T17:09:47.357Z,56.20
2023-01-08T17:14:50.912Z,57.60
2023-01-08T17:19:53.409Z,55.83
2023-01-08T17:24:56.404Z,61.30
2023-01-08T17:29:59.112Z,66.00
2023-01-08T17:35:01.737Z,45.10
2023-01-08T17:40:05.277Z,46.73
2023-01-08T17:45:08.320Z,47.07
2023-01-08T17:50:11.557Z,49.60
2023-01-08T17:55:13.964Z,47.27
2023-01-08T18:00:18.241Z,69.07
2023-01-08T18:05:20.839Z,62.43
2023-01-08T18:10:23.588Z,47.83
2023-01-08T18:15:26.124Z,49.87
2023-01-08T18:20:28.891Z,52.73
2023-01-08T18:25:31.428Z,46.97
2023-01-08T18:30:33.876Z,44.07
2023-01-08T18:35:36.463Z,46.58
2023-01-08T18:40:39.203Z,54.00
2023-01-08T18:45:41.801Z,43.63
2023-01-08T18:50:44.775Z,46.37
2023-01-08T18:55:47.421Z,42.53
2023-01-08T19:00:50.112Z,40.83
2023-01-08T19:05:52.981Z,40.63
2023-01-08T19:10:55.520Z,41.30
2023-01-08T19:16:00.992Z,38.80
2023-01-08T19:21:09.491Z,38.40
2023-01-08T19:26:15.118Z,40.10
2023-01-08T19:31:19.011Z,28.73
2023-01-08T19:36:24.412Z,24.53
2023-01-08T19:41:46.032Z,22.87
2023-01-08T19:46:48.716Z,18.80
2023-01-08T19:51:52.603Z,24.37
2023-01-08T19:56:55.637Z,20.87
2023-01-08T20:01:58.235Z,22.50
2023-01-08T20:07:01.107Z,21.13
2023-01-08T20:12:04.483Z,16.37
2023-01-08T20:17:06.969Z,19.77
2023-01-08T20:22:09.580Z,18.60
2023-01-08T20:27:12.042Z,21.00
2023-01-08T20:32:14.593Z,23.33
2023-01-08T20:37:17.558Z,21.67
2023-01-08T20:42:33.068Z,22.67
2023-01-08T20:47:36.380Z,20.30
2023-01-08T20:52:39.032Z,19.87
2023-01-08T20:57:41.664Z,18.33
2023-01-08T21:02:44.395Z,22.80
2023-01-08T21:07:46.852Z,22.27
2023-01-08T21:12:49.441Z,21.83
2023-01-08T21:17:52.553Z,19.73
2023-01-08T21:22:55.105Z,22.87
2023-01-08T21:27:57.597Z,22.90
2023-01-08T21:33:00.069Z,19.17
2023-01-08T21:38:02.673Z,20.13
2023-01-08T21:43:24.542Z,26.83
2023-01-08T21:48:28.703Z,31.00
2023-01-08T21:53:31.443Z,33.17
2023-01-08T22:04:12.278Z,20.73
2023-01-08T22:09:14.938Z,19.87
2023-01-08T22:14:17.677Z,23.27
2023-01-08T22:19:20.121Z,23.87
2023-01-08T22:24:22.568Z,22.90
2023-01-08T22:29:25.264Z,20.63
2023-01-08T22:34:31.448Z,22.40
2023-01-08T22:39:33.926Z,21.97
2023-01-08T22:44:36.549Z,24.43
2023-01-08T22:49:41.801Z,23.30
2023-01-08T22:54:44.394Z,23.83
2023-01-08T22:59:46.839Z,22.83
2023-01-08T23:04:54.088Z,21.90
2023-01-08T23:09:56.582Z,23.00
2023-01-08T23:14:59.126Z,22.17
2023-01-08T23:20:03.116Z,16.60
2023-01-08T23:25:06.129Z,22.70
2023-01-08T23:30:09.369Z,22.90
2023-01-08T23:35:11.822Z,17.77
2023-01-08T23:40:14.370Z,23.33
2023-01-08T23:45:16.969Z,18.67
2023-01-08T23:50:19.448Z,19.77
2023-01-08T23:55:22.083Z,21.97
